Archival Weather

Václav Havel Intl Apt

Prague, Czechia (LKPR)

Report from: Friday, May 26, 2023 11:30 PM CEST
Current time: Sunday, July 14, 2024 1:50 PM CEST

Current weather – Weather history – Daily summaries
Weather forecast

Temperature11.0°C (51.8°F)
Dew point4.0°C (39.2°F)
Winds 6 kts (3.1 m/s, 6.9 mph) Northwest (320°)
Clouds Sky clear
Altimeter30.30 in.Hg (1026 mB)
Relative humidity62 %
Density altitude-787 ft. (-240 m)
Remarks Ceiling and visibility OK
No significant changes expected in the next two hours
Flight conditions Visual Meteorological Conditions
Raw dataLKPR 262130Z 32006KT CAVOK 11/04 Q1026 NOSIG
An error has occurred. This application may no longer respond until reloaded. Reload 🗙